Terminal Aerodrome Forecast
Issued by NWS Central Illinois

Home | Current Version | Previous Version | Text Only | Print | Product List | Glossary On
Versions: 1 2 3 4 5 6 7 8 9 10 11 12 13 14 15 16 17 18 19 20 21 22 23 24
000
FTUS43 KILX 070520
TAFPIA
TAF
KPIA 070520Z 0706/0806 27006KT P6SM -SHRA VCTS SCT015 OVC035CB
     FM070800 34007KT 5SM -RA BR BKN007 OVC015
     FM071300 02010KT 3SM -RA BR BKN006 OVC012
     FM071700 04009KT P6SM OVC015
     FM080000 06007KT P6SM BKN035=

USA.gov is the U.S. government's official web portal to all federal, state and local government web resources and services.